Het weer levert geen direct gevaar op.    Er zijn geen waarschuwingen afgegeven.


Onweer radar Meer informatie blitzortung!


Regen radar Meer informatie rain snow radar


Bezoek onze andere website:

Template documentation
and downloads

And another site

Forum Leuven-template

EUWEATHER.EU

Verwachtingen Meteociel


U vindt ons ook hier:

Het Weer Aktueel

UK Metoffice

European Weather Network

WeatherCloud

Weather Underground

Benelux Weer Netwerk

AWEKAS

WeatherlinkIP

HAMweather, WeatherForYou, PWS Weather

Wetterpage 24

Wetter.com



METAR rapporten vliegvelden

   
EBAW - Antwerp
Gewijzigd: 15-10-2018 11:20
Helder  
Helder  
   Wind: ZZO 11.1 km/h
Wind: ZZO 11.1 km/h
Temperatuur: 19°C
Dauwpunt: 13°C
Vochtigheid: 68%
Barometer: 1011 hPa
Zicht: meer dan 10 km
Bewolking: Helder
EBAW 150920Z 16006KT CAVOK 19/13 Q1011 NOSIG
EBLG - Li├Ęge
Gewijzigd: 15-10-2018 11:20
Helder  
Helder  
   Wind: Zuiden 24.1 km/h
Wind: Zuiden 24.1 km/h
Temperatuur: 21°C
Dauwpunt: 9°C
Vochtigheid: 46%
Barometer: 1013 hPa
Zicht: meer dan 10 km
Bewolking: Helder
EBLG 150920Z 19013KT CAVOK 21/09 Q1013 NOSIG
EBCV - Mons/Bergen
Gewijzigd: 15-10-2018 10:55
Helder  
Helder  
   Wind: Zuiden 14.8 km/h
Wind: Zuiden 14.8 km/h
Temperatuur: 20°C
Dauwpunt: 11°C
Vochtigheid: 56%
Barometer: 1011 hPa
Bewolking: Helder
Zicht: meer dan 10 km
Bewolking: Helder
EBCV 150855Z AUTO 18008KT 9999 NCD 20/11 Q1011 BLU
EHBK - Maastricht
Gewijzigd: 15-10-2018 11:25
Gedeeltelijk bewolkt  
Gedeeltelijk bewolkt  
   Wind: Zuiden 14.8 km/h
Wind: Zuiden 14.8 km/h
Temperatuur: 20°C
Dauwpunt: 10°C
Vochtigheid: 53%
Barometer: 1012 hPa
Bewolking: Gedeeltelijk bewolkt
Zicht: meer dan 10 km
Bewolking: Gedeeltelijk bewolkt
EHBK 150925Z AUTO 18008KT 150V220 9999 NSC 20/10 Q1012 NOSIG
ELLX - Luxemburg
Gewijzigd: 15-10-2018 11:20
Helder  
Helder  
   Wind: ZO 13 km/h
Wind: ZO 13 km/h
Temperatuur: 18°C
Dauwpunt: 9°C
Vochtigheid: 56%
Barometer: 1014 hPa
Zicht: meer dan 10 km
Bewolking: Helder
ELLX 150920Z 14007KT 110V170 CAVOK 18/09 Q1014 NOSIG
EBOS - Oostende
Gewijzigd: 15-10-2018 11:20
Helder  
Helder  
   Wind: Zuiden 22.2 km/h
Wind: Zuiden 22.2 km/h
Temperatuur: 19°C
Dauwpunt: 12°C
Vochtigheid: 64%
Barometer: 1010 hPa
Zicht: meer dan 10 km
Bewolking: Helder
EBOS 150920Z 19012KT CAVOK 19/12 Q1010 NOSIG

Script ontwikkeld door  Saratoga-weather.org Aangepast voor de template door  Weerstation Leuven

Apparatuur in gebruik:

Weerstation
Davis VP2

Weerprogramma
Meteobridge

Weercomputer
Asus WL -330N3G

Webleverancier
Onecom

Davis VP2

Meteobridge

Asus WL -330N3G

Onecom